sensor_id;sensor_type;location;lat;lon;timestamp;pressure;altitude;pressure_sealevel;temperature;humidity
68456;BME280;55437;55.046;38.838;2023-03-13T00:01:25;98672.28;;;-0.22;58.18
68456;BME280;55437;55.046;38.838;2023-03-13T00:03:51;98669.00;;;-0.30;58.30
68456;BME280;55437;55.046;38.838;2023-03-13T00:06:24;98668.25;;;-0.41;57.96
68456;BME280;55437;55.046;38.838;2023-03-13T00:08:50;98669.16;;;-0.51;57.88
68456;BME280;55437;55.046;38.838;2023-03-13T00:11:35;98666.75;;;-0.71;58.08
68456;BME280;55437;55.046;38.838;2023-03-13T00:14:02;98666.00;;;-0.85;58.47
68456;BME280;55437;55.046;38.838;2023-03-13T00:16:28;98670.22;;;-0.92;58.40
68456;BME280;55437;55.046;38.838;2023-03-13T00:18:55;98679.50;;;-0.97;58.47
68456;BME280;55437;55.046;38.838;2023-03-13T00:21:24;98685.38;;;-0.99;58.45
68456;BME280;55437;55.046;38.838;2023-03-13T00:24:10;98685.38;;;-1.05;58.31
68456;BME280;55437;55.046;38.838;2023-03-13T00:26:36;98694.63;;;-1.08;58.62
68456;BME280;55437;55.046;38.838;2023-03-13T00:29:20;98693.84;;;-1.19;59.23
68456;BME280;55437;55.046;38.838;2023-03-13T00:31:46;98700.59;;;-1.27;58.84
68456;BME280;55437;55.046;38.838;2023-03-13T00:34:13;98707.34;;;-1.38;59.28
68456;BME280;55437;55.046;38.838;2023-03-13T00:36:39;98714.88;;;-1.44;59.51
68456;BME280;55437;55.046;38.838;2023-03-13T00:39:05;98710.72;;;-1.51;59.23
68456;BME280;55437;55.046;38.838;2023-03-13T00:41:35;98720.78;;;-1.63;59.38
68456;BME280;55437;55.046;38.838;2023-03-13T00:44:01;98720.81;;;-1.72;59.91
68456;BME280;55437;55.046;38.838;2023-03-13T00:46:30;98723.31;;;-1.78;60.07
68456;BME280;55437;55.046;38.838;2023-03-13T00:48:56;98732.56;;;-1.84;60.25
68456;BME280;55437;55.046;38.838;2023-03-13T00:51:23;98738.44;;;-1.86;60.63
68456;BME280;55437;55.046;38.838;2023-03-13T00:53:51;98738.44;;;-1.86;60.55
68456;BME280;55437;55.046;38.838;2023-03-13T00:56:19;98742.63;;;-1.88;60.54
68456;BME280;55437;55.046;38.838;2023-03-13T00:58:47;98737.56;;;-1.93;60.63
68456;BME280;55437;55.046;38.838;2023-03-13T01:01:34;98762.72;;;-1.91;60.50
68456;BME280;55437;55.046;38.838;2023-03-13T01:04:03;98758.53;;;-1.92;61.01
68456;BME280;55437;55.046;38.838;2023-03-13T01:06:31;98755.19;;;-1.99;60.90
68456;BME280;55437;55.046;38.838;2023-03-13T01:08:57;98770.31;;;-1.94;61.22
68456;BME280;55437;55.046;38.838;2023-03-13T01:11:27;98768.59;;;-1.89;61.03
68456;BME280;55437;55.046;38.838;2023-03-13T01:14:00;98773.66;;;-1.97;61.48
68456;BME280;55437;55.046;38.838;2023-03-13T01:16:31;98771.94;;;-2.02;61.94
68456;BME280;55437;55.046;38.838;2023-03-13T01:19:02;98771.97;;;-2.05;61.50
68456;BME280;55437;55.046;38.838;2023-03-13T01:21:28;98784.53;;;-2.05;61.95
68456;BME280;55437;55.046;38.838;2023-03-13T01:23:56;98783.69;;;-2.12;61.73
68456;BME280;55437;55.046;38.838;2023-03-13T01:26:23;98786.19;;;-2.13;61.68
68456;BME280;55437;55.046;38.838;2023-03-13T01:28:50;98802.09;;;-2.14;62.19
68456;BME280;55437;55.046;38.838;2023-03-13T01:31:29;98802.97;;;-2.09;62.16
68456;BME280;55437;55.046;38.838;2023-03-13T01:33:57;98811.34;;;-2.12;61.75
68456;BME280;55437;55.046;38.838;2023-03-13T01:36:24;98817.22;;;-2.17;61.64
68456;BME280;55437;55.046;38.838;2023-03-13T01:38:52;98815.50;;;-2.22;61.78
68456;BME280;55437;55.046;38.838;2023-03-13T01:41:19;98831.44;;;-2.23;61.80
68456;BME280;55437;55.046;38.838;2023-03-13T01:43:46;98831.41;;;-2.33;62.19
68456;BME280;55437;55.046;38.838;2023-03-13T01:46:18;98838.09;;;-2.34;61.85
68456;BME280;55437;55.046;38.838;2023-03-13T01:51:43;98849.81;;;-2.37;62.23
68456;BME280;55437;55.046;38.838;2023-03-13T01:54:17;98854.81;;;-2.39;62.24
68456;BME280;55437;55.046;38.838;2023-03-13T01:56:47;98863.19;;;-2.47;62.39
68456;BME280;55437;55.046;38.838;2023-03-13T01:59:20;98863.13;;;-2.54;61.78
68456;BME280;55437;55.046;38.838;2023-03-13T02:01:49;98873.22;;;-2.50;62.13
68456;BME280;55437;55.046;38.838;2023-03-13T02:04:19;98880.75;;;-2.49;62.32
68456;BME280;55437;55.046;38.838;2023-03-13T02:06:49;98885.75;;;-2.52;62.29
68456;BME280;55437;55.046;38.838;2023-03-13T02:09:23;98895.00;;;-2.49;62.07
68456;BME280;55437;55.046;38.838;2023-03-13T02:12:07;98899.16;;;-2.53;62.24
68456;BME280;55437;55.046;38.838;2023-03-13T02:14:37;98904.19;;;-2.56;62.42
68456;BME280;55437;55.046;38.838;2023-03-13T02:17:04;98908.38;;;-2.55;61.88
68456;BME280;55437;55.046;38.838;2023-03-13T02:27:45;98920.13;;;-2.49;62.28
68456;BME280;55437;55.046;38.838;2023-03-13T02:30:13;98915.13;;;-2.45;61.92
68456;BME280;55437;55.046;38.838;2023-03-13T02:32:40;98926.03;;;-2.41;61.76
68456;BME280;55437;55.046;38.838;2023-03-13T02:35:11;98931.91;;;-2.42;61.81
68456;BME280;55437;55.046;38.838;2023-03-13T02:37:41;98941.88;;;-2.51;62.13
68456;BME280;55437;55.046;38.838;2023-03-13T02:40:17;98941.84;;;-2.61;62.20
68456;BME280;55437;55.046;38.838;2023-03-13T02:42:46;98950.28;;;-2.54;62.29
68456;BME280;55437;55.046;38.838;2023-03-13T02:45:14;98952.78;;;-2.54;62.24
68456;BME280;55437;55.046;38.838;2023-03-13T02:47:40;98948.56;;;-2.57;62.10
68456;BME280;55437;55.046;38.838;2023-03-13T02:50:08;98955.28;;;-2.57;62.06
68456;BME280;55437;55.046;38.838;2023-03-13T02:52:38;98966.97;;;-2.59;61.69
68456;BME280;55437;55.046;38.838;2023-03-13T02:55:16;98977.84;;;-2.62;62.04
68456;BME280;55437;55.046;38.838;2023-03-13T02:57:47;98981.19;;;-2.61;62.34
68456;BME280;55437;55.046;38.838;2023-03-13T03:00:14;98991.19;;;-2.72;62.28
68456;BME280;55437;55.046;38.838;2023-03-13T03:02:44;98992.88;;;-2.71;62.25
68456;BME280;55437;55.046;38.838;2023-03-13T03:05:11;99003.72;;;-2.75;62.19
68456;BME280;55437;55.046;38.838;2023-03-13T03:07:38;99004.53;;;-2.77;62.23
68456;BME280;55437;55.046;38.838;2023-03-13T03:10:30;99005.38;;;-2.75;62.12
68456;BME280;55437;55.046;38.838;2023-03-13T03:12:55;99012.91;;;-2.77;62.38
68456;BME280;55437;55.046;38.838;2023-03-13T03:15:21;99018.72;;;-2.84;62.01
68456;BME280;55437;55.046;38.838;2023-03-13T03:17:48;99028.78;;;-2.82;62.51
68456;BME280;55437;55.046;38.838;2023-03-13T03:20:15;99029.59;;;-2.85;62.26
68456;BME280;55437;55.046;38.838;2023-03-13T03:22:42;99035.47;;;-2.83;62.55
68456;BME280;55437;55.046;38.838;2023-03-13T03:25:08;99040.47;;;-2.84;62.13
68456;BME280;55437;55.046;38.838;2023-03-13T03:27:34;99056.41;;;-2.84;62.48
68456;BME280;55437;55.046;38.838;2023-03-13T03:30:04;99068.91;;;-2.87;62.05
68456;BME280;55437;55.046;38.838;2023-03-13T03:32:32;99063.88;;;-2.92;62.57
68456;BME280;55437;55.046;38.838;2023-03-13T03:34:58;99070.53;;;-2.95;62.66
68456;BME280;55437;55.046;38.838;2023-03-13T03:37:24;99077.19;;;-2.97;62.56
68456;BME280;55437;55.046;38.838;2023-03-13T03:39:50;99079.75;;;-2.94;62.48
68456;BME280;55437;55.046;38.838;2023-03-13T03:42:16;99081.41;;;-2.96;62.38
68456;BME280;55437;55.046;38.838;2023-03-13T03:44:42;99082.25;;;-2.96;62.22
68456;BME280;55437;55.046;38.838;2023-03-13T03:47:34;99085.56;;;-2.98;62.42
68456;BME280;55437;55.046;38.838;2023-03-13T03:50:00;99088.94;;;-2.96;61.91
68456;BME280;55437;55.046;38.838;2023-03-13T03:52:30;99092.31;;;-2.94;62.35
68456;BME280;55437;55.046;38.838;2023-03-13T03:54:56;99089.84;;;-2.88;61.90
68456;BME280;55437;55.046;38.838;2023-03-13T03:57:23;99097.38;;;-2.91;62.25
68456;BME280;55437;55.046;38.838;2023-03-13T03:59:49;99095.69;;;-2.87;61.82
68456;BME280;55437;55.046;38.838;2023-03-13T04:02:15;99103.28;;;-2.84;61.60
68456;BME280;55437;55.046;38.838;2023-03-13T04:04:44;99105.81;;;-2.81;61.86
68456;BME280;55437;55.046;38.838;2023-03-13T04:07:17;99106.69;;;-2.76;61.74
68456;BME280;55437;55.046;38.838;2023-03-13T04:09:44;99105.13;;;-2.64;62.01
68456;BME280;55437;55.046;38.838;2023-03-13T04:12:18;99112.06;;;-2.38;61.34
68456;BME280;55437;55.046;38.838;2023-03-13T04:14:45;99112.34;;;-2.00;60.72
68456;BME280;55437;55.046;38.838;2023-03-13T04:17:13;99117.44;;;-1.94;60.25
68456;BME280;55437;55.046;38.838;2023-03-13T04:19:40;99115.00;;;-1.76;60.18
68456;BME280;55437;55.046;38.838;2023-03-13T04:22:06;99124.47;;;-1.28;59.14
68456;BME280;55437;55.046;38.838;2023-03-13T04:24:32;99128.78;;;-0.89;58.76
68456;BME280;55437;55.046;38.838;2023-03-13T04:26:58;99128.00;;;-0.57;58.43
68456;BME280;55437;55.046;38.838;2023-03-13T04:29:25;99126.34;;;-0.16;57.89
68456;BME280;55437;55.046;38.838;2023-03-13T04:31:58;99132.06;;;0.65;56.88
68456;BME280;55437;55.046;38.838;2023-03-13T04:34:52;99140.91;;;1.45;55.52
68456;BME280;55437;55.046;38.838;2023-03-13T04:37:44;99145.66;;;1.91;54.73
68456;BME280;55437;55.046;38.838;2023-03-13T04:40:25;99147.81;;;2.31;53.80
68456;BME280;55437;55.046;38.838;2023-03-13T04:43:09;99150.91;;;2.59;53.14
68456;BME280;55437;55.046;38.838;2023-03-13T04:45:45;99152.97;;;3.00;52.67
68456;BME280;55437;55.046;38.838;2023-03-13T04:48:25;99164.72;;;3.04;52.10
68456;BME280;55437;55.046;38.838;2023-03-13T04:51:11;99172.22;;;3.14;51.62
68456;BME280;55437;55.046;38.838;2023-03-13T04:53:56;99177.28;;;3.14;51.47
68456;BME280;55437;55.046;38.838;2023-03-13T04:56:47;99181.00;;;2.89;51.54
68456;BME280;55437;55.046;38.838;2023-03-13T04:59:28;99193.63;;;2.92;51.60
68456;BME280;55437;55.046;38.838;2023-03-13T05:02:17;99194.03;;;3.26;50.72
68456;BME280;55437;55.046;38.838;2023-03-13T05:04:59;99193.44;;;3.70;50.00
68456;BME280;55437;55.046;38.838;2023-03-13T05:07:25;99200.25;;;3.67;50.00
68456;BME280;55437;55.046;38.838;2023-03-13T05:10:05;99189.53;;;3.48;49.80
68456;BME280;55437;55.046;38.838;2023-03-13T05:12:30;99200.47;;;3.51;49.76
68456;BME280;55437;55.046;38.838;2023-03-13T05:15:07;99213.84;;;3.64;49.52
68456;BME280;55437;55.046;38.838;2023-03-13T05:17:52;99216.00;;;3.88;49.22
68456;BME280;55437;55.046;38.838;2023-03-13T05:20:22;99220.06;;;4.02;48.63
68456;BME280;55437;55.046;38.838;2023-03-13T05:23:00;99211.94;;;4.33;48.59
68456;BME280;55437;55.046;38.838;2023-03-13T05:25:44;99221.72;;;4.99;47.68
68456;BME280;55437;55.046;38.838;2023-03-13T05:28:29;99223.22;;;5.51;46.86
68456;BME280;55437;55.046;38.838;2023-03-13T05:31:11;99231.78;;;5.47;46.64
68456;BME280;55437;55.046;38.838;2023-03-13T05:33:43;99227.53;;;5.89;46.00
68456;BME280;55437;55.046;38.838;2023-03-13T05:36:27;99231.16;;;6.50;45.40
68456;BME280;55437;55.046;38.838;2023-03-13T05:38:56;99231.63;;;6.97;44.47
68456;BME280;55437;55.046;38.838;2023-03-13T05:41:56;99247.53;;;7.65;43.60
68456;BME280;55437;55.046;38.838;2023-03-13T05:44:41;99256.28;;;8.14;42.73
68456;BME280;55437;55.046;38.838;2023-03-13T05:47:26;99267.53;;;8.36;42.09
68456;BME280;55437;55.046;38.838;2023-03-13T05:50:12;99273.03;;;8.22;41.72
68456;BME280;55437;55.046;38.838;2023-03-13T05:53:14;99276.44;;;7.97;41.64
68456;BME280;55437;55.046;38.838;2023-03-13T05:55:58;99273.63;;;8.04;41.42
68456;BME280;55437;55.046;38.838;2023-03-13T05:58:39;99278.22;;;8.21;41.07
68456;BME280;55437;55.046;38.838;2023-03-13T06:01:25;99287.00;;;8.40;40.58
68456;BME280;55437;55.046;38.838;2023-03-13T06:04:17;99277.56;;;8.93;39.86
68456;BME280;55437;55.046;38.838;2023-03-13T06:06:45;99284.53;;;9.61;38.91
68456;BME280;55437;55.046;38.838;2023-03-13T06:09:11;99294.47;;;9.92;38.39
68456;BME280;55437;55.046;38.838;2023-03-13T06:11:38;99291.78;;;9.73;37.99
68456;BME280;55437;55.046;38.838;2023-03-13T06:14:06;99298.63;;;9.26;37.82
68456;BME280;55437;55.046;38.838;2023-03-13T06:16:55;99296.16;;;8.98;37.95
68456;BME280;55437;55.046;38.838;2023-03-13T06:19:22;99301.19;;;9.26;37.39
68456;BME280;55437;55.046;38.838;2023-03-13T06:21:49;99302.97;;;9.71;37.36
68456;BME280;55437;55.046;38.838;2023-03-13T06:24:15;99308.44;;;10.51;36.38
68456;BME280;55437;55.046;38.838;2023-03-13T06:26:41;99317.81;;;10.73;36.16
68456;BME280;55437;55.046;38.838;2023-03-13T06:29:06;99315.25;;;10.94;35.61
68456;BME280;55437;55.046;38.838;2023-03-13T06:31:57;99322.19;;;11.32;34.57
68456;BME280;55437;55.046;38.838;2023-03-13T06:34:23;99320.47;;;11.51;34.63
68456;BME280;55437;55.046;38.838;2023-03-13T06:36:49;99326.63;;;11.47;34.67
68456;BME280;55437;55.046;38.838;2023-03-13T06:39:15;99333.75;;;11.61;34.83
68456;BME280;55437;55.046;38.838;2023-03-13T06:41:41;99338.88;;;11.61;34.03
68456;BME280;55437;55.046;38.838;2023-03-13T06:44:07;99340.69;;;11.79;34.65
68456;BME280;55437;55.046;38.838;2023-03-13T06:46:33;99345.59;;;11.84;34.44
68456;BME280;55437;55.046;38.838;2023-03-13T06:48:58;99347.16;;;12.07;34.06
68456;BME280;55437;55.046;38.838;2023-03-13T06:51:25;99349.50;;;12.11;33.61
68456;BME280;55437;55.046;38.838;2023-03-13T06:53:51;99350.28;;;12.13;33.37
68456;BME280;55437;55.046;38.838;2023-03-13T06:56:17;99350.53;;;12.26;33.52
68456;BME280;55437;55.046;38.838;2023-03-13T06:58:47;99360.09;;;12.05;33.60
68456;BME280;55437;55.046;38.838;2023-03-13T07:01:14;99372.94;;;12.43;33.43
68456;BME280;55437;55.046;38.838;2023-03-13T07:03:41;99381.31;;;12.65;33.09
68456;BME280;55437;55.046;38.838;2023-03-13T07:06:08;99391.38;;;12.52;32.81
68456;BME280;55437;55.046;38.838;2023-03-13T07:08:35;99383.38;;;12.21;33.05
68456;BME280;55437;55.046;38.838;2023-03-13T07:11:06;99378.03;;;12.25;32.80
68456;BME280;55437;55.046;38.838;2023-03-13T07:13:32;99391.94;;;12.40;32.87
68456;BME280;55437;55.046;38.838;2023-03-13T07:16:02;99399.81;;;12.73;32.72
68456;BME280;55437;55.046;38.838;2023-03-13T07:18:29;99405.28;;;12.84;32.64
68456;BME280;55437;55.046;38.838;2023-03-13T07:20:57;99413.72;;;12.88;32.39
68456;BME280;55437;55.046;38.838;2023-03-13T07:23:25;99414.16;;;13.15;32.12
68456;BME280;55437;55.046;38.838;2023-03-13T07:25:56;99416.56;;;13.35;32.00
68456;BME280;55437;55.046;38.838;2023-03-13T07:28:22;99422.34;;;13.40;31.60
68456;BME280;55437;55.046;38.838;2023-03-13T07:30:49;99417.31;;;13.37;31.61
68456;BME280;55437;55.046;38.838;2023-03-13T07:33:15;99426.13;;;13.33;31.19
68456;BME280;55437;55.046;38.838;2023-03-13T07:35:50;99429.63;;;12.96;30.63
68456;BME280;55437;55.046;38.838;2023-03-13T07:38:17;99429.22;;;12.86;31.12
68456;BME280;55437;55.046;38.838;2023-03-13T07:40:50;99435.84;;;12.92;31.13
68456;BME280;55437;55.046;38.838;2023-03-13T07:43:16;99438.25;;;12.78;30.86
68456;BME280;55437;55.046;38.838;2023-03-13T07:48:15;99438.09;;;13.34;30.94
68456;BME280;55437;55.046;38.838;2023-03-13T07:50:41;99445.75;;;13.53;31.15
68456;BME280;55437;55.046;38.838;2023-03-13T07:53:09;99448.94;;;12.87;30.95
68456;BME280;55437;55.046;38.838;2023-03-13T07:55:35;99456.03;;;12.82;30.71
68456;BME280;55437;55.046;38.838;2023-03-13T07:58:07;99453.38;;;12.29;30.38
68456;BME280;55437;55.046;38.838;2023-03-13T08:00:38;99453.69;;;12.21;30.88
68456;BME280;55437;55.046;38.838;2023-03-13T08:03:24;99456.91;;;12.26;31.69
68456;BME280;55437;55.046;38.838;2023-03-13T08:06:01;99463.13;;;12.41;30.93
68456;BME280;55437;55.046;38.838;2023-03-13T08:08:28;99465.75;;;12.40;30.87
68456;BME280;55437;55.046;38.838;2023-03-13T08:11:03;99470.53;;;12.10;30.48
68456;BME280;55437;55.046;38.838;2023-03-13T08:13:31;99460.66;;;12.01;31.16
68456;BME280;55437;55.046;38.838;2023-03-13T08:16:11;99466.44;;;11.85;31.47
68456;BME280;55437;55.046;38.838;2023-03-13T08:18:40;99468.44;;;11.99;31.50
68456;BME280;55437;55.046;38.838;2023-03-13T08:21:09;99474.94;;;11.87;31.38
68456;BME280;55437;55.046;38.838;2023-03-13T08:23:35;99481.03;;;11.65;31.80
68456;BME280;55437;55.046;38.838;2023-03-13T08:26:15;99495.06;;;10.72;32.72
68456;BME280;55437;55.046;38.838;2023-03-13T08:28:43;99491.06;;;10.17;32.85
68456;BME280;55437;55.046;38.838;2023-03-13T08:31:18;99497.06;;;9.67;33.82
68456;BME280;55437;55.046;38.838;2023-03-13T08:33:46;99497.22;;;9.63;33.83
68456;BME280;55437;55.046;38.838;2023-03-13T08:36:24;99494.66;;;9.63;34.03
68456;BME280;55437;55.046;38.838;2023-03-13T08:38:51;99498.81;;;8.86;35.06
68456;BME280;55437;55.046;38.838;2023-03-13T08:41:23;99492.16;;;8.53;35.14
68456;BME280;55437;55.046;38.838;2023-03-13T08:43:51;99500.59;;;7.94;36.39
68456;BME280;55437;55.046;38.838;2023-03-13T08:46:18;99498.19;;;8.19;35.68
68456;BME280;55437;55.046;38.838;2023-03-13T08:48:44;99496.56;;;8.17;36.10
68456;BME280;55437;55.046;38.838;2023-03-13T08:51:12;99508.13;;;7.99;36.63
68456;BME280;55437;55.046;38.838;2023-03-13T08:53:39;99505.44;;;8.04;36.88
68456;BME280;55437;55.046;38.838;2023-03-13T08:56:07;99511.44;;;8.03;36.73
68456;BME280;55437;55.046;38.838;2023-03-13T08:58:33;99513.59;;;7.85;36.80
68456;BME280;55437;55.046;38.838;2023-03-13T09:01:11;99516.44;;;7.73;37.48
68456;BME280;55437;55.046;38.838;2023-03-13T09:03:40;99521.66;;;7.70;37.89
68456;BME280;55437;55.046;38.838;2023-03-13T09:06:07;99518.75;;;7.84;37.32
68456;BME280;55437;55.046;38.838;2023-03-13T09:08:34;99532.81;;;8.00;37.22
68456;BME280;55437;55.046;38.838;2023-03-13T09:11:08;99534.38;;;8.06;37.57
68456;BME280;55437;55.046;38.838;2023-03-13T09:13:37;99524.31;;;8.30;37.05
68456;BME280;55437;55.046;38.838;2023-03-13T09:16:23;99524.00;;;8.10;37.23
68456;BME280;55437;55.046;38.838;2023-03-13T09:18:50;99534.75;;;7.90;37.35
68456;BME280;55437;55.046;38.838;2023-03-13T09:21:19;99529.28;;;7.72;37.78
68456;BME280;55437;55.046;38.838;2023-03-13T09:23:45;99527.94;;;7.58;37.75
68456;BME280;55437;55.046;38.838;2023-03-13T09:26:12;99534.19;;;7.47;38.20
68456;BME280;55437;55.046;38.838;2023-03-13T09:28:39;99536.75;;;7.45;38.20
68456;BME280;55437;55.046;38.838;2023-03-13T09:31:15;99527.84;;;7.26;38.57
68456;BME280;55437;55.046;38.838;2023-03-13T09:33:43;99528.59;;;6.94;38.36
68456;BME280;55437;55.046;38.838;2023-03-13T09:36:10;99527.00;;;6.88;38.53
68456;BME280;55437;55.046;38.838;2023-03-13T09:38:36;99526.63;;;7.05;38.75
68456;BME280;55437;55.046;38.838;2023-03-13T09:41:19;99524.38;;;6.92;38.46
68456;BME280;55437;55.046;38.838;2023-03-13T09:47:11;99537.97;;;6.52;38.91
68456;BME280;55437;55.046;38.838;2023-03-13T09:50:20;99535.41;;;6.54;39.17
68456;BME280;55437;55.046;38.838;2023-03-13T09:52:50;99533.16;;;6.40;39.53
68456;BME280;55437;55.046;38.838;2023-03-13T09:55:44;99548.06;;;5.66;39.73
68456;BME280;55437;55.046;38.838;2023-03-13T09:58:14;99544.50;;;5.76;39.68
68456;BME280;55437;55.046;38.838;2023-03-13T10:00:47;99560.81;;;5.64;39.88
68456;BME280;55437;55.046;38.838;2023-03-13T10:03:26;99565.06;;;5.64;39.88
68456;BME280;55437;55.046;38.838;2023-03-13T10:06:00;99558.13;;;5.72;39.80
68456;BME280;55437;55.046;38.838;2023-03-13T10:08:30;99559.03;;;5.68;39.79
68456;BME280;55437;55.046;38.838;2023-03-13T10:11:23;99560.09;;;5.56;40.09
68456;BME280;55437;55.046;38.838;2023-03-13T10:17:17;99564.97;;;5.68;40.39
68456;BME280;55437;55.046;38.838;2023-03-13T10:19:46;99563.13;;;5.79;39.96
68456;BME280;55437;55.046;38.838;2023-03-13T10:22:23;99556.47;;;5.69;39.96
68456;BME280;55437;55.046;38.838;2023-03-13T10:24:57;99566.38;;;5.89;40.07
68456;BME280;55437;55.046;38.838;2023-03-13T10:27:24;99566.63;;;5.72;40.46
68456;BME280;55437;55.046;38.838;2023-03-13T10:29:49;99571.69;;;5.74;40.34
68456;BME280;55437;55.046;38.838;2023-03-13T10:32:16;99572.69;;;5.65;40.58
68456;BME280;55437;55.046;38.838;2023-03-13T10:37:27;99576.38;;;5.46;40.79
68456;BME280;55437;55.046;38.838;2023-03-13T10:40:24;99571.59;;;5.28;40.60
68456;BME280;55437;55.046;38.838;2023-03-13T10:42:53;99575.13;;;5.18;40.57
68456;BME280;55437;55.046;38.838;2023-03-13T10:45:24;99575.06;;;5.21;40.93
68456;BME280;55437;55.046;38.838;2023-03-13T10:47:59;99591.13;;;5.24;40.74
68456;BME280;55437;55.046;38.838;2023-03-13T10:50:30;99590.25;;;5.27;41.04
68456;BME280;55437;55.046;38.838;2023-03-13T10:52:57;99600.28;;;5.37;41.17
68456;BME280;55437;55.046;38.838;2023-03-13T10:55:24;99602.47;;;5.62;41.08
68456;BME280;55437;55.046;38.838;2023-03-13T10:58:04;99605.53;;;5.80;40.75
68456;BME280;55437;55.046;38.838;2023-03-13T11:00:37;99600.50;;;5.77;40.53
68456;BME280;55437;55.046;38.838;2023-03-13T11:03:16;99606.75;;;5.58;40.56
68456;BME280;55437;55.046;38.838;2023-03-13T11:05:53;99616.91;;;5.61;40.48
68456;BME280;55437;55.046;38.838;2023-03-13T11:08:22;99615.88;;;5.73;40.54
68456;BME280;55437;55.046;38.838;2023-03-13T11:10:53;99631.28;;;5.64;41.03
68456;BME280;55437;55.046;38.838;2023-03-13T11:13:41;99625.59;;;5.47;41.09
68456;BME280;55437;55.046;38.838;2023-03-13T11:16:21;99628.22;;;5.42;41.18
68456;BME280;55437;55.046;38.838;2023-03-13T11:24:42;99641.28;;;5.77;40.57
68456;BME280;55437;55.046;38.838;2023-03-13T11:27:18;99646.09;;;5.96;40.15
68456;BME280;55437;55.046;38.838;2023-03-13T11:29:56;99650.72;;;5.69;40.26
68456;BME280;55437;55.046;38.838;2023-03-13T11:32:32;99662.69;;;5.66;40.29
68456;BME280;55437;55.046;38.838;2023-03-13T11:35:15;99654.03;;;5.76;39.75
68456;BME280;55437;55.046;38.838;2023-03-13T11:37:44;99663.28;;;5.80;39.73
68456;BME280;55437;55.046;38.838;2023-03-13T11:40:35;99675.09;;;5.86;39.71
68456;BME280;55437;55.046;38.838;2023-03-13T11:48:28;99684.28;;;5.37;39.91
68456;BME280;55437;55.046;38.838;2023-03-13T11:51:29;99675.31;;;5.09;40.60
68456;BME280;55437;55.046;38.838;2023-03-13T11:56:40;99695.81;;;4.98;40.49
68456;BME280;55437;55.046;38.838;2023-03-13T12:01:42;99706.94;;;4.90;41.05
68456;BME280;55437;55.046;38.838;2023-03-13T12:04:21;99706.81;;;5.00;40.96
68456;BME280;55437;55.046;38.838;2023-03-13T12:06:53;99707.63;;;5.05;40.98
68456;BME280;55437;55.046;38.838;2023-03-13T12:09:31;99713.63;;;4.98;41.20
68456;BME280;55437;55.046;38.838;2023-03-13T12:17:50;99724.59;;;5.03;41.43
68456;BME280;55437;55.046;38.838;2023-03-13T12:20:25;99720.38;;;5.02;41.36
68456;BME280;55437;55.046;38.838;2023-03-13T12:25:39;99727.22;;;4.96;41.67
68456;BME280;55437;55.046;38.838;2023-03-13T12:30:54;99710.16;;;5.05;41.36
68456;BME280;55437;55.046;38.838;2023-03-13T12:33:30;99711.06;;;5.00;41.15
68456;BME280;55437;55.046;38.838;2023-03-13T12:36:19;99700.22;;;4.84;41.36
68456;BME280;55437;55.046;38.838;2023-03-13T12:38:52;99707.09;;;4.75;41.41
68456;BME280;55437;55.046;38.838;2023-03-13T12:43:51;99691.44;;;4.30;41.34
68456;BME280;55437;55.046;38.838;2023-03-13T12:58:28;99705.38;;;3.80;42.78
68456;BME280;55437;55.046;38.838;2023-03-13T13:00:56;99702.81;;;3.86;43.09
68456;BME280;55437;55.046;38.838;2023-03-13T13:03:39;99708.78;;;3.81;43.30
68456;BME280;55437;55.046;38.838;2023-03-13T13:06:12;99702.91;;;3.70;43.01
68456;BME280;55437;55.046;38.838;2023-03-13T13:08:47;99708.06;;;3.60;43.18
68456;BME280;55437;55.046;38.838;2023-03-13T13:14:01;99719.72;;;3.89;43.24
68456;BME280;55437;55.046;38.838;2023-03-13T13:16:31;99723.06;;;3.97;43.37
68456;BME280;55437;55.046;38.838;2023-03-13T13:24:58;99738.38;;;3.83;44.27
68456;BME280;55437;55.046;38.838;2023-03-13T13:32:38;99746.09;;;3.70;45.88
68456;BME280;55437;55.046;38.838;2023-03-13T13:35:34;99740.25;;;3.52;47.10
68456;BME280;55437;55.046;38.838;2023-03-13T13:43:34;99742.56;;;3.89;47.23
68456;BME280;55437;55.046;38.838;2023-03-13T13:46:25;99734.00;;;4.01;47.06
68456;BME280;55437;55.046;38.838;2023-03-13T13:54:52;99734.91;;;3.95;47.39
68456;BME280;55437;55.046;38.838;2023-03-13T13:57:22;99741.78;;;3.79;47.71
68456;BME280;55437;55.046;38.838;2023-03-13T14:02:36;99762.22;;;3.59;48.35
68456;BME280;55437;55.046;38.838;2023-03-13T14:05:31;99763.91;;;3.59;50.08
68456;BME280;55437;55.046;38.838;2023-03-13T14:10:37;99765.72;;;3.31;53.50
68456;BME280;55437;55.046;38.838;2023-03-13T14:13:14;99761.53;;;3.19;54.42
68456;BME280;55437;55.046;38.838;2023-03-13T14:15:44;99764.97;;;3.12;54.79
68456;BME280;55437;55.046;38.838;2023-03-13T14:18:15;99765.00;;;3.02;54.77
68456;BME280;55437;55.046;38.838;2023-03-13T14:20:53;99773.44;;;2.92;55.24
68456;BME280;55437;55.046;38.838;2023-03-13T14:23:31;99784.44;;;2.98;55.18
68456;BME280;55437;55.046;38.838;2023-03-13T14:26:29;99781.06;;;2.95;55.32
68456;BME280;55437;55.046;38.838;2023-03-13T14:29:01;99786.13;;;2.93;55.71
68456;BME280;55437;55.046;38.838;2023-03-13T14:31:31;99790.34;;;3.02;55.68
68456;BME280;55437;55.046;38.838;2023-03-13T14:33:59;99803.00;;;3.09;55.65
68456;BME280;55437;55.046;38.838;2023-03-13T14:36:26;99808.91;;;3.04;56.22
68456;BME280;55437;55.046;38.838;2023-03-13T14:38:53;99807.25;;;3.00;56.32
68456;BME280;55437;55.046;38.838;2023-03-13T14:41:43;99808.97;;;2.73;57.55
68456;BME280;55437;55.046;38.838;2023-03-13T14:44:23;99804.75;;;2.57;58.16
68456;BME280;55437;55.046;38.838;2023-03-13T14:47:03;99816.59;;;2.50;58.37
68456;BME280;55437;55.046;38.838;2023-03-13T14:49:29;99819.13;;;2.49;58.30
68456;BME280;55437;55.046;38.838;2023-03-13T14:52:02;99814.06;;;2.38;58.48
68456;BME280;55437;55.046;38.838;2023-03-13T14:54:35;99803.94;;;2.40;58.29
68456;BME280;55437;55.046;38.838;2023-03-13T14:57:13;99808.13;;;2.35;58.40
68456;BME280;55437;55.046;38.838;2023-03-13T14:59:41;99814.06;;;2.40;58.07